Don's Testing Zone


Current Conditions
weather data
source:

National Weather Service
Mostly Cloudy Little Rock, AR
Mostly Cloudy, 88°F
Friday, September 21, 2018 3:53 PM CDT
Temperature: 88°F/31°C
Humidity: 63%
Barometer: 29.97in/1014.8mb Barometer Steady
Wind: W at 13mph/20kmh, G:17mph
View other cities:
Searcy | Little Rock | Hot Springs | Russellville | More...
Astronomical Conditions (Clear Sky Clock)
Searcy Clear Sky Clock
Find more weather in Little Rock, AR
    

Radar Images

NWS
    Wx Underground

KARK
   

Solar-Terrestrial Data

NWS METAR weather data

ADDS - METARS form results





Aviation Digital Data Service (ADDS) Output produced by METARs form (2142 UTC 21 September 2018) found at http://www.aviationweather.gov/metar/data/ 

KLIT 212053Z 04011G15KT 10SM SCT055TCU BKN110 BKN250 31/23 A2997 RMK AO2 SLP148 CB DSNT E AND W MOV NE TCU OHD AND ALQDS T03060228 56016

KLIT 211953Z VRB03KT 10SM SCT055 BKN120 32/22 A2998 RMK AO2 SLP150 TCU DSNT NW-NE T03170217

KLIT 211853Z 22005KT 10SM SCT050 BKN120 31/22 A2999 RMK AO2 SLP156 CB TOP DSNT NE T03110222

KLIT 211753Z 17006KT 10SM SCT045 BKN120 31/23 A3002 RMK AO2 SLP164 TCU DSNT NE AND SW T03110233 10311 20233 58008

KLIT 211653Z 17005KT 10SM SCT040 BKN120 31/23 A3005 RMK AO2 SLP174 TCU DSNT N-NE AND S T03060228

KLIT 211553Z VRB03KT 10SM FEW040 BKN120 29/24 A3005 RMK AO2 SLP175 T02940239

KLIT 211453Z 17004KT 10SM BKN120 27/24 A3004 RMK AO2 SLP173 T02720239 51004

KLIT 211353Z 16003KT 7SM BKN120 26/24 A3004 RMK AO2 SLP173 T02560239

KLIT 211253Z 00000KT 7SM BKN120 24/23 A3004 RMK AO2 SLP171 T02390228

KLIT 211153Z 16004KT 7SM BKN200 23/23 A3003 RMK AO2 SLP169 T02330228 10250 20228 53018

KLIT 211053Z 00000KT 7SM BKN200 23/22 A3001 RMK AO2 SLP163 T02280222

KLIT 210953Z 23005KT 7SM SCT200 23/22 A2999 RMK AO2 SLP155 T02330222

KLIT 210853Z 23005KT 10SM FEW200 24/22 A2998 RMK AO2 SLP150 T02390222 53002

KLIT 210753Z 00000KT 10SM CLR 24/23 A2997 RMK AO2 SLP148 T02390228

KLIT 210653Z 15003KT 10SM CLR 24/23 A2997 RMK AO2 SLP148 T02390228

KLIT 210553Z 00000KT 10SM FEW070 24/23 A2997 RMK AO2 SLP149 T02440228 10294 20239 403390228 51006

KLIT 210453Z 15005KT 10SM FEW065 24/23 A2997 RMK AO2 SLP148 T02440233

KLIT 210353Z 19006KT 10SM CLR 26/23 A2997 RMK AO2 SLP147 T02560228

KLIT 210253Z 19005KT 10SM CLR 26/23 A2996 RMK AO2 SLP143 T02610233 53015

KLIT 210153Z 16005KT 10SM CLR 27/23 A2993 RMK AO2 SLP135 T02670233

KLIT 210053Z 17005KT 10SM CLR 27/23 A2992 RMK AO2 SLP131 T02720233

KLIT 202353Z 16005KT 10SM FEW250 29/23 A2991 RMK AO2 SLP128 T02940228 10339 20294 55006

KLIT 202253Z 16008KT 10SM FEW055 32/21 A2991 RMK AO2 SLP127 T03220211

KLIT 202153Z 18005KT 10SM SCT055 33/21 A2992 RMK AO2 SLP131 T03330211 KLIT 211720Z 2118/2218 VRB05KT P6SM VCSH SCT040 OVC120 TEMPO 2118/2122 4SM -TSRA BR OVC025CB FM212200 VRB06KT P6SM -RA OVC050 FM220300 VRB05KT 5SM -RA OVC025 FM220600 03012G20KT 4SM -RA OVC007 FM221500 08010G16KT 5SM -RA BR OVC011